Time;durP1;ratioP1;P1;durP2;ratioP2;P2;SDS_P1;SDS_P2;PMS_P1;PMS_P2;Temp;Humidity;BMP_temperature;BMP_pressure;BME280_temperature;BME280_humidity;BME280_pressure;Samples;Min_cycle;Max_cycle;Signal;HPM_P1;HPM_P2
2022/09/15 00:00:49;;;;;;;11.70;7.90;;;;;;;15.03;71.26;98668.34;105223;1281;138551;-72
2022/09/15 00:03:42;;;;;;;13.00;7.90;;;;;;;15.01;71.31;98662.15;105241;1281;98164;-70
2022/09/15 00:06:14;;;;;;;15.30;7.70;;;;;;;15.00;71.38;98656.80;105309;1281;138571;-71
2022/09/15 00:08:46;;;;;;;11.10;7.40;;;;;;;14.98;71.37;98658.19;105305;1281;107871;-71
2022/09/15 00:11:22;;;;;;;15.10;8.30;;;;;;;14.95;71.54;98656.82;105492;1281;109115;-71
2022/09/15 00:13:55;;;;;;;12.20;7.90;;;;;;;14.94;71.71;98652.33;105197;1281;138738;-71
2022/09/15 00:16:29;;;;;;;14.80;7.80;;;;;;;14.93;71.59;98652.24;105279;1281;98003;-72
2022/09/15 00:19:03;;;;;;;15.10;8.10;;;;;;;14.93;71.83;98648.27;105257;1281;138639;-72
2022/09/15 00:21:39;;;;;;;16.60;8.30;;;;;;;14.93;71.79;98643.89;105490;1281;106912;-72
2022/09/15 00:24:11;;;;;;;12.80;7.80;;;;;;;14.92;71.90;98646.45;105343;1281;138772;-72
2022/09/15 00:26:43;;;;;;;14.70;7.90;;;;;;;14.91;71.89;98644.77;105449;1281;97840;-72
2022/09/15 00:29:15;;;;;;;15.30;8.10;;;;;;;14.90;71.99;98646.73;105502;1281;97836;-72
2022/09/15 00:31:47;;;;;;;17.30;9.20;;;;;;;14.89;72.11;98647.98;105296;1281;138658;-71
2022/09/15 00:34:19;;;;;;;16.40;10.10;;;;;;;14.89;72.20;98655.73;105506;1281;107872;-71
2022/09/15 00:36:50;;;;;;;15.80;11.30;;;;;;;14.88;72.22;98661.41;105447;1281;138958;-71
2022/09/15 00:39:22;;;;;;;15.40;11.10;;;;;;;14.88;72.37;98667.52;105467;1281;97958;-70
2022/09/15 00:41:54;;;;;;;14.60;9.60;;;;;;;14.89;72.51;98666.03;105309;1281;139025;-70
2022/09/15 00:44:49;;;;;;;16.00;9.80;;;;;;;14.90;72.54;98667.21;105264;1281;112536;-71
2022/09/15 00:47:23;;;;;;;16.50;9.00;;;;;;;14.90;72.45;98664.95;105402;1281;108980;-71
2022/09/15 00:49:58;;;;;;;15.60;8.40;;;;;;;14.92;72.44;98668.11;105279;1281;138765;-71
2022/09/15 00:52:36;;;;;;;13.50;7.90;;;;;;;14.95;72.46;98668.56;105388;1281;97886;-71
2022/09/15 00:55:12;;;;;;;16.10;8.00;;;;;;;14.97;72.42;98669.80;105268;1281;138481;-71
2022/09/15 00:57:53;;;;;;;18.60;8.80;;;;;;;15.00;72.39;98663.14;105427;1281;112616;-72
2022/09/15 01:00:28;;;;;;;14.10;8.10;;;;;;;15.00;72.41;98656.59;105078;1281;139538;-73
2022/09/15 01:03:00;;;;;;;13.00;8.60;;;;;;;15.01;72.32;98654.47;105429;1281;108842;-72
2022/09/15 01:05:36;;;;;;;13.40;8.80;;;;;;;15.00;72.43;98642.77;105462;1281;97859;-71
2022/09/15 01:08:13;;;;;;;16.40;8.90;;;;;;;15.00;72.47;98643.86;106916;1280;140539;-72
2022/09/15 01:10:45;;;;;;;15.30;8.80;;;;;;;14.98;72.47;98639.27;107006;1279;112630;-72
2022/09/15 01:13:17;;;;;;;14.50;8.80;;;;;;;14.98;72.73;98638.73;106923;1281;138751;-71
2022/09/15 01:16:01;;;;;;;15.90;8.90;;;;;;;14.99;72.63;98637.27;106962;1281;108753;-71
2022/09/15 01:18:44;;;;;;;15.70;9.20;;;;;;;15.01;72.81;98634.16;106434;1281;140095;-72
2022/09/15 01:21:31;;;;;;;16.20;9.10;;;;;;;15.02;72.81;98633.02;105570;1281;97857;-71
2022/09/15 01:24:45;;;;;;;16.10;9.20;;;;;;;15.01;72.85;98627.14;106960;1281;138706;-71
2022/09/15 01:27:51;;;;;;;15.80;9.70;;;;;;;15.02;72.95;98621.68;106957;1281;109281;-71
2022/09/15 01:30:23;;;;;;;13.40;9.50;;;;;;;15.01;73.09;98614.38;106835;1281;138798;-72
2022/09/15 01:33:08;;;;;;;16.80;10.90;;;;;;;15.02;73.19;98617.79;106937;1279;97356;-72
2022/09/15 01:35:49;;;;;;;19.20;9.30;;;;;;;15.02;73.25;98613.73;107003;1281;96892;-72
2022/09/15 01:38:30;;;;;;;15.30;9.70;;;;;;;15.02;73.33;98608.52;106981;1281;112569;-72
2022/09/15 01:41:09;;;;;;;14.90;9.80;;;;;;;15.04;73.40;98608.52;107001;1281;108928;-72
2022/09/15 01:43:47;;;;;;;17.00;10.00;;;;;;;15.05;73.49;98609.16;106239;1281;138906;-71
2022/09/15 01:46:23;;;;;;;15.20;10.00;;;;;;;15.08;73.60;98607.89;105409;1281;97884;-72
2022/09/15 01:48:59;;;;;;;18.20;9.90;;;;;;;15.08;73.45;98606.45;105330;1281;138748;-72
2022/09/15 01:51:33;;;;;;;17.80;9.80;;;;;;;15.08;73.52;98604.58;105462;1281;112554;-72
2022/09/15 01:54:07;;;;;;;14.20;9.40;;;;;;;15.06;73.68;98602.55;105335;1281;139819;-71
2022/09/15 01:56:40;;;;;;;17.90;9.70;;;;;;;15.05;73.65;98604.41;105383;1281;108780;-72
2022/09/15 01:59:12;;;;;;;20.10;10.80;;;;;;;15.04;73.85;98602.89;105332;1281;97958;-72
2022/09/15 02:01:50;;;;;;;18.70;10.80;;;;;;;15.04;73.91;98602.58;105382;1281;140121;-71
2022/09/15 02:04:28;;;;;;;13.50;9.80;;;;;;;15.04;73.99;98600.16;105380;1281;111497;-72
2022/09/15 02:07:10;;;;;;;14.60;10.20;;;;;;;15.03;73.99;98601.44;105384;1281;140067;-72
2022/09/15 02:09:51;;;;;;;15.00;10.20;;;;;;;15.02;74.11;98599.91;105441;1281;107891;-71
2022/09/15 02:12:33;;;;;;;16.10;10.90;;;;;;;15.02;74.19;98598.71;105430;1279;139028;-71
2022/09/15 02:15:10;;;;;;;13.80;10.40;;;;;;;15.00;74.33;98595.02;105495;1281;97846;-71
2022/09/15 02:17:46;;;;;;;19.90;11.10;;;;;;;14.98;74.28;98593.77;105486;1281;112591;-71
2022/09/15 02:20:27;;;;;;;16.00;10.70;;;;;;;14.97;74.38;98595.80;105504;1280;107850;-71
2022/09/15 02:23:07;;;;;;;16.00;10.40;;;;;;;14.96;74.56;98592.03;105553;1280;108899;-71
2022/09/15 02:25:44;;;;;;;16.30;10.90;;;;;;;14.96;74.62;98587.30;105400;1281;138775;-71
2022/09/15 02:28:19;;;;;;;18.20;10.70;;;;;;;14.95;74.77;98582.48;105509;1281;97872;-71
2022/09/15 02:30:54;;;;;;;18.70;11.20;;;;;;;14.93;74.84;98574.06;105423;1281;138729;-71
2022/09/15 02:33:31;;;;;;;16.60;10.80;;;;;;;14.91;74.94;98571.94;105350;1281;109103;-71
2022/09/15 02:36:04;;;;;;;15.80;12.00;;;;;;;14.89;74.97;98575.55;105405;1281;140840;-72
2022/09/15 02:38:42;;;;;;;15.60;10.90;;;;;;;14.89;75.20;98572.96;105547;1281;97860;-71
2022/09/15 02:41:14;;;;;;;17.10;11.80;;;;;;;14.89;75.28;98568.77;105476;1281;97859;-71
2022/09/15 02:43:49;;;;;;;18.30;12.00;;;;;;;14.87;75.39;98568.69;105378;1281;138525;-71
2022/09/15 02:46:23;;;;;;;18.20;12.20;;;;;;;14.86;75.42;98568.95;105498;1279;108904;-70
2022/09/15 02:48:55;;;;;;;21.40;13.00;;;;;;;14.86;75.57;98572.61;105399;1281;138694;-70
2022/09/15 02:51:28;;;;;;;16.10;12.30;;;;;;;14.86;75.70;98573.04;105380;1281;97951;-71
2022/09/15 02:54:00;;;;;;;18.60;12.70;;;;;;;14.86;75.75;98574.75;103981;1281;1970999;-70
2022/09/15 02:56:32;;;;;;;21.70;12.50;;;;;;;14.87;75.79;98578.52;105445;1281;113022;-70
2022/09/15 02:59:04;;;;;;;17.60;12.00;;;;;;;14.87;75.75;98576.08;105437;1281;108999;-71
2022/09/15 03:01:37;;;;;;;16.80;12.10;;;;;;;14.86;75.96;98573.15;105397;1281;138734;-71
2022/09/15 03:04:09;;;;;;;19.30;12.20;;;;;;;14.85;76.01;98574.43;105423;1281;97974;-71
2022/09/15 03:06:42;;;;;;;19.80;11.90;;;;;;;14.84;76.01;98574.91;105437;1281;139751;-72
2022/09/15 03:09:14;;;;;;;19.30;13.60;;;;;;;14.83;76.09;98574.13;105555;1280;112571;-72
2022/09/15 03:11:46;;;;;;;18.60;12.70;;;;;;;14.81;76.25;98571.92;105374;1281;164670;-71
2022/09/15 03:14:18;;;;;;;21.50;13.70;;;;;;;14.81;76.31;98568.13;105344;1281;108721;-71
2022/09/15 03:16:50;;;;;;;19.10;12.40;;;;;;;14.78;76.32;98564.33;105389;1281;97821;-72
2022/09/15 03:19:22;;;;;;;18.50;12.70;;;;;;;14.74;76.43;98558.86;105436;1281;139229;-71
2022/09/15 03:21:54;;;;;;;19.50;12.80;;;;;;;14.72;76.63;98553.92;105617;1281;112476;-72
2022/09/15 03:24:26;;;;;;;18.30;12.50;;;;;;;14.71;76.84;98551.05;105410;1281;141007;-70
2022/09/15 03:26:57;;;;;;;16.80;12.20;;;;;;;14.69;76.83;98555.55;105508;1281;108870;-73
2022/09/15 03:29:30;;;;;;;20.80;13.20;;;;;;;14.69;76.98;98555.41;105575;1281;97997;-72
2022/09/15 03:32:02;;;;;;;17.80;13.30;;;;;;;14.68;76.97;98556.36;105490;1281;138354;-71
2022/09/15 03:34:34;;;;;;;19.10;13.00;;;;;;;14.67;76.97;98559.09;105533;1280;111477;-71
2022/09/15 03:37:07;;;;;;;20.90;12.90;;;;;;;14.66;77.16;98558.42;105556;1281;139358;-71
2022/09/15 03:39:39;;;;;;;17.90;12.70;;;;;;;14.64;77.13;98561.18;105597;1281;109096;-72
2022/09/15 03:42:11;;;;;;;20.50;13.90;;;;;;;14.63;77.28;98564.80;105298;1281;139910;-71
2022/09/15 03:44:43;;;;;;;16.50;12.80;;;;;;;14.61;77.26;98558.48;105417;1281;97844;-71
2022/09/15 03:47:15;;;;;;;19.50;13.30;;;;;;;14.60;77.34;98556.27;105530;1281;112468;-71
2022/09/15 03:49:46;;;;;;;20.50;13.20;;;;;;;14.59;77.36;98557.58;105320;1281;140430;-71
2022/09/15 03:52:18;;;;;;;18.90;14.10;;;;;;;14.58;77.45;98566.90;105462;1281;108853;-70
2022/09/15 03:54:50;;;;;;;19.20;13.90;;;;;;;14.58;77.61;98571.98;105388;1281;140180;-71
2022/09/15 03:57:22;;;;;;;22.60;13.30;;;;;;;14.57;77.53;98568.46;105642;1281;97893;-71
2022/09/15 03:59:54;;;;;;;19.20;14.50;;;;;;;14.56;77.67;98565.35;105277;1281;139102;-70
2022/09/15 04:02:26;;;;;;;20.20;14.00;;;;;;;14.55;77.70;98570.35;105464;1281;107419;-71
2022/09/15 04:04:58;;;;;;;20.50;14.10;;;;;;;14.53;77.70;98576.89;105395;1281;107773;-69
2022/09/15 04:07:30;;;;;;;21.60;13.70;;;;;;;14.53;77.70;98573.25;105380;1281;138867;-70
2022/09/15 04:10:03;;;;;;;20.70;13.70;;;;;;;14.51;77.87;98572.13;105480;1280;97875;-71
2022/09/15 04:12:35;;;;;;;23.40;14.10;;;;;;;14.51;77.82;98577.05;105410;1281;138755;-71
2022/09/15 04:15:10;;;;;;;21.40;14.20;;;;;;;14.49;77.98;98582.10;105523;1281;109050;-71
2022/09/15 04:17:42;;;;;;;24.80;14.00;;;;;;;14.46;77.85;98579.19;105503;1281;108530;-71
2022/09/15 04:20:16;;;;;;;22.50;14.00;;;;;;;14.44;77.76;98576.34;105351;1281;97849;-73
2022/09/15 04:22:47;;;;;;;17.90;13.00;;;;;;;14.44;77.90;98570.03;105556;1281;97944;-70
2022/09/15 04:25:19;;;;;;;26.50;13.90;;;;;;;14.43;77.80;98569.59;105549;1279;139825;-72
2022/09/15 04:27:51;;;;;;;20.20;12.80;;;;;;;14.43;77.81;98570.11;105577;1281;109008;-70
2022/09/15 04:30:23;;;;;;;19.70;12.50;;;;;;;14.42;77.73;98562.51;105436;1279;139582;-72
2022/09/15 04:32:56;;;;;;;18.50;12.20;;;;;;;14.41;77.55;98556.11;105459;1281;97983;-72
2022/09/15 04:35:28;;;;;;;19.40;12.50;;;;;;;14.40;77.44;98549.51;105487;1281;97927;-70
2022/09/15 04:38:00;;;;;;;20.50;12.10;;;;;;;14.39;77.30;98551.84;105462;1280;138781;-69
2022/09/15 04:40:32;;;;;;;20.30;12.40;;;;;;;14.40;77.43;98550.05;105582;1281;108066;-72
2022/09/15 04:43:05;;;;;;;20.80;13.00;;;;;;;14.41;77.39;98546.34;105446;1279;139822;-70
2022/09/15 04:45:37;;;;;;;17.20;12.70;;;;;;;14.40;77.37;98550.60;105555;1281;97859;-73
2022/09/15 04:48:09;;;;;;;20.60;12.80;;;;;;;14.40;77.30;98553.55;105431;1281;140593;-72
2022/09/15 04:50:41;;;;;;;23.80;13.10;;;;;;;14.40;77.35;98544.28;105568;1281;112706;-72
2022/09/15 04:53:13;;;;;;;18.30;12.40;;;;;;;14.40;77.41;98547.43;105467;1281;108912;-71
2022/09/15 04:55:45;;;;;;;22.70;12.70;;;;;;;14.39;77.30;98552.23;105473;1279;138973;-72
2022/09/15 04:58:17;;;;;;;19.70;12.00;;;;;;;14.37;77.08;98550.29;105503;1279;97845;-72
2022/09/15 05:00:49;;;;;;;20.50;12.10;;;;;;;14.34;76.91;98553.61;105427;1280;138689;-72
2022/09/15 05:03:21;;;;;;;23.10;12.60;;;;;;;14.35;77.05;98554.81;105357;1281;112714;-73
2022/09/15 05:05:53;;;;;;;21.60;11.60;;;;;;;14.34;76.83;98558.16;105129;1281;139266;-71
2022/09/15 05:08:25;;;;;;;18.00;11.10;;;;;;;14.32;76.95;98557.06;105352;1281;108832;-71
2022/09/15 05:11:02;;;;;;;18.60;12.40;;;;;;;14.34;76.94;98558.55;105486;1280;97862;-71
2022/09/15 05:13:35;;;;;;;23.00;12.50;;;;;;;14.35;77.05;98561.94;105377;1281;138648;-72
2022/09/15 05:16:10;;;;;;;18.20;11.80;;;;;;;14.37;77.05;98565.88;105537;1281;112455;-72
2022/09/15 05:18:44;;;;;;;21.30;12.90;;;;;;;14.39;77.30;98562.20;106776;1281;139450;-71
2022/09/15 05:21:19;;;;;;;23.50;11.90;;;;;;;14.41;77.18;98559.21;106264;1279;108916;-73
2022/09/15 05:23:51;;;;;;;22.80;11.90;;;;;;;14.43;76.88;98557.73;105607;1281;138909;-72
2022/09/15 05:26:25;;;;;;;17.40;11.40;;;;;;;14.44;76.89;98563.41;105891;1279;97851;-72
2022/09/15 05:28:58;;;;;;;20.40;11.40;;;;;;;14.46;76.80;98560.82;105611;1280;112572;-72
2022/09/15 05:31:32;;;;;;;18.00;11.10;;;;;;;14.48;76.86;98564.48;105473;1281;139938;-73
2022/09/15 05:34:06;;;;;;;19.90;11.10;;;;;;;14.52;76.67;98566.13;105433;1281;109290;-73
2022/09/15 05:36:38;;;;;;;22.50;11.80;;;;;;;14.55;76.61;98566.98;105553;1279;138730;-71
2022/09/15 05:39:10;;;;;;;18.70;11.20;;;;;;;14.57;76.28;98566.80;105660;1279;97888;-71
2022/09/15 05:41:41;;;;;;;20.70;11.10;;;;;;;14.59;76.23;98565.45;105554;1279;112703;-73
2022/09/15 05:44:13;;;;;;;22.80;11.40;;;;;;;14.63;76.25;98566.53;105581;1281;108780;-72
2022/09/15 05:46:45;;;;;;;23.80;11.20;;;;;;;14.68;76.05;98565.23;105570;1279;108950;-73
2022/09/15 05:49:17;;;;;;;22.40;10.90;;;;;;;14.72;75.88;98567.23;105348;1279;139321;-73
2022/09/15 05:51:50;;;;;;;22.30;10.50;;;;;;;14.76;75.68;98570.77;105590;1279;97877;-73
2022/09/15 05:54:21;;;;;;;18.50;10.00;;;;;;;14.79;75.47;98570.01;105156;1281;141060;-72
2022/09/15 05:56:53;;;;;;;17.20;10.00;;;;;;;14.82;75.40;98569.31;105471;1279;108906;-71
2022/09/15 05:59:25;;;;;;;14.00;8.70;;;;;;;14.84;75.24;98571.91;105396;1281;110476;-71
2022/09/15 06:01:58;;;;;;;17.50;9.20;;;;;;;14.86;74.98;98575.79;105357;1280;140167;-71
2022/09/15 06:04:30;;;;;;;24.50;10.90;;;;;;;14.89;74.70;98578.55;105400;1281;98013;-70
2022/09/15 06:07:01;;;;;;;13.10;8.10;;;;;;;14.92;74.66;98578.17;105601;1281;138600;-73
2022/09/15 06:09:34;;;;;;;18.10;9.00;;;;;;;14.94;74.30;98580.58;105517;1279;109058;-71
2022/09/15 06:12:06;;;;;;;14.90;7.70;;;;;;;14.97;73.98;98577.90;105368;1279;138892;-72
2022/09/15 06:14:38;;;;;;;12.70;7.90;;;;;;;15.02;73.87;98581.23;105501;1279;97947;-72
2022/09/15 06:17:10;;;;;;;15.30;8.40;;;;;;;15.05;73.61;98579.71;105595;1279;98493;-72
2022/09/15 06:19:42;;;;;;;13.00;7.40;;;;;;;15.11;73.45;98580.73;105486;1279;138488;-73
2022/09/15 06:22:14;;;;;;;17.80;7.50;;;;;;;15.15;73.34;98581.09;105335;1281;109090;-71
2022/09/15 06:24:46;;;;;;;11.70;6.90;;;;;;;15.20;73.06;98588.27;106083;1281;139483;-72
2022/09/15 06:27:19;;;;;;;17.60;7.50;;;;;;;15.25;72.88;98584.73;107029;1279;96916;-71
2022/09/15 06:29:51;;;;;;;16.70;6.70;;;;;;;15.29;72.62;98585.42;106740;1281;139169;-72
2022/09/15 06:32:24;;;;;;;14.10;6.20;;;;;;;15.36;72.29;98584.70;105793;1279;111557;-71
2022/09/15 06:34:56;;;;;;;15.00;6.30;;;;;;;15.45;72.06;98582.58;105598;1279;109246;-72
2022/09/15 06:37:27;;;;;;;13.60;5.60;;;;;;;15.57;71.67;98587.25;105509;1281;138618;-73
2022/09/15 06:39:59;;;;;;;11.10;5.70;;;;;;;15.76;71.47;98589.97;105523;1280;97853;-72
2022/09/15 06:42:31;;;;;;;13.60;5.80;;;;;;;16.02;70.95;98591.57;105377;1281;139579;-72
2022/09/15 06:45:04;;;;;;;9.80;4.90;;;;;;;16.17;70.48;98589.77;105357;1281;112826;-73
2022/09/15 06:47:36;;;;;;;12.50;5.00;;;;;;;16.32;70.02;98584.58;105378;1281;108932;-73
2022/09/15 06:50:10;;;;;;;11.40;5.20;;;;;;;16.52;69.85;98592.58;106790;1281;138519;-72
2022/09/15 06:52:44;;;;;;;11.40;4.70;;;;;;;16.69;68.89;98590.81;106770;1281;96305;-72
2022/09/15 06:55:16;;;;;;;11.00;5.10;;;;;;;16.79;68.17;98591.37;105352;1281;138831;-73
2022/09/15 06:57:49;;;;;;;10.30;5.10;;;;;;;16.90;68.00;98593.08;105468;1281;112425;-74
2022/09/15 07:00:21;;;;;;;13.40;4.90;;;;;;;17.01;67.39;98590.94;105467;1280;138748;-73
2022/09/15 07:02:53;;;;;;;10.90;4.90;;;;;;;17.11;67.11;98598.35;105177;1281;109089;-72
2022/09/15 07:05:26;;;;;;;12.80;5.00;;;;;;;17.19;66.79;98600.43;105305;1281;97850;-71
2022/09/15 07:07:58;;;;;;;11.90;4.70;;;;;;;17.37;67.02;98600.62;105331;1279;138528;-70
2022/09/15 07:10:30;;;;;;;12.50;5.70;;;;;;;17.86;67.11;98596.17;105385;1281;111220;-70
2022/09/15 07:13:02;;;;;;;12.20;4.30;;;;;;;18.53;66.36;98593.36;105224;1281;138530;-69
2022/09/15 07:15:34;;;;;;;14.90;4.30;;;;;;;19.08;65.44;98591.77;105371;1280;109516;-70
2022/09/15 07:18:06;;;;;;;7.70;3.90;;;;;;;19.57;64.18;98593.90;105317;1281;138520;-71
2022/09/15 07:20:40;;;;;;;10.70;4.40;;;;;;;20.02;62.84;98602.38;105235;1281;98191;-72
2022/09/15 07:23:12;;;;;;;8.10;3.90;;;;;;;20.41;61.48;98607.59;105118;1279;109841;-72
2022/09/15 07:25:47;;;;;;;8.40;3.60;;;;;;;20.70;60.53;98604.38;105033;1281;138093;-72
2022/09/15 07:28:19;;;;;;;7.90;3.60;;;;;;;20.85;59.61;98607.39;105364;1279;110078;-72
2022/09/15 07:30:53;;;;;;;8.80;3.40;;;;;;;21.11;59.20;98609.72;105013;1281;137700;-71
2022/09/15 07:33:25;;;;;;;8.60;3.50;;;;;;;21.45;57.97;98611.60;105098;1281;97841;-71
2022/09/15 07:35:57;;;;;;;6.10;3.20;;;;;;;21.88;57.19;98604.42;105348;1281;138944;-72
2022/09/15 07:38:29;;;;;;;9.90;3.70;;;;;;;22.27;56.53;98608.48;105380;1279;109134;-72
2022/09/15 07:41:06;;;;;;;7.60;3.30;;;;;;;22.24;55.40;98613.88;105456;1281;108912;-74
2022/09/15 07:43:46;;;;;;;13.20;3.70;;;;;;;22.07;55.43;98617.89;105345;1281;138624;-72
2022/09/15 07:46:32;;;;;;;8.10;3.10;;;;;;;22.19;54.80;98619.95;105298;1281;97834;-72
2022/09/15 07:49:05;;;;;;;9.40;3.60;;;;;;;22.96;54.42;98616.11;105488;1281;138514;-72
2022/09/15 07:51:37;;;;;;;8.80;3.20;;;;;;;23.98;53.81;98617.27;105559;1279;109051;-73
2022/09/15 07:54:09;;;;;;;10.00;3.60;;;;;;;24.97;52.77;98616.09;104891;1281;137787;-72
2022/09/15 07:56:41;;;;;;;6.60;2.90;;;;;;;25.91;51.30;98609.13;105405;1279;97969;-70
2022/09/15 07:59:13;;;;;;;9.50;3.00;;;;;;;26.73;49.32;98611.67;104876;1281;98534;-70
2022/09/15 08:01:45;;;;;;;6.50;3.30;;;;;;;27.09;47.82;98612.13;104876;1281;138498;-70
2022/09/15 08:04:17;;;;;;;9.20;2.70;;;;;;;27.55;46.57;98615.45;105076;1279;109193;-70
2022/09/15 08:06:50;;;;;;;6.00;2.40;;;;;;;27.67;45.68;98616.52;104931;1281;137730;-71
2022/09/15 08:09:22;;;;;;;7.30;2.70;;;;;;;27.48;45.06;98611.36;105175;1280;97855;-71
2022/09/15 08:11:54;;;;;;;6.10;2.10;;;;;;;27.71;44.39;98611.81;105068;1281;137658;-71
2022/09/15 08:14:26;;;;;;;5.90;2.40;;;;;;;28.19;43.75;98612.67;105359;1279;112642;-71
2022/09/15 08:17:01;;;;;;;5.50;2.40;;;;;;;28.69;43.53;98604.27;105411;1279;109041;-71
2022/09/15 08:19:35;;;;;;;4.60;2.30;;;;;;;29.42;43.63;98601.79;106785;1280;138416;-71
2022/09/15 08:22:06;;;;;;;5.80;2.20;;;;;;;30.21;42.33;98599.14;105648;1281;97720;-73
2022/09/15 08:24:39;;;;;;;8.70;2.10;;;;;;;30.78;40.43;98603.67;105365;1281;137618;-71
2022/09/15 08:27:11;;;;;;;7.40;2.00;;;;;;;31.18;39.77;98597.19;105601;1281;111463;-70
2022/09/15 08:29:43;;;;;;;5.90;2.30;;;;;;;31.45;38.34;98599.54;105450;1281;109479;-69
2022/09/15 08:32:15;;;;;;;5.10;2.00;;;;;;;31.60;37.86;98600.86;105392;1281;108831;-69
2022/09/15 08:34:47;;;;;;;5.70;2.10;;;;;;;31.65;36.69;98607.36;105402;1279;97856;-67
2022/09/15 08:37:19;;;;;;;6.70;2.00;;;;;;;31.82;36.81;98610.29;105496;1280;138209;-69
2022/09/15 08:39:51;;;;;;;4.10;2.00;;;;;;;32.13;36.77;98612.48;105519;1279;112482;-69
2022/09/15 08:42:25;;;;;;;5.00;1.90;;;;;;;32.43;36.22;98610.98;105329;1278;138182;-70
2022/09/15 08:45:03;;;;;;;6.20;2.30;;;;;;;32.65;35.45;98611.39;105502;1279;107063;-70
2022/09/15 08:47:40;;;;;;;3.70;1.80;;;;;;;32.79;34.37;98603.05;105373;1281;99287;-71
2022/09/15 08:50:22;;;;;;;6.40;2.10;;;;;;;32.74;33.97;98604.56;105461;1279;97840;-75
2022/09/15 08:52:58;;;;;;;5.10;1.70;;;;;;;32.77;33.88;98602.23;105535;1281;112424;-72
2022/09/15 08:55:38;;;;;;;6.20;1.80;;;;;;;32.79;33.84;98605.36;105271;1281;139737;-71
2022/09/15 08:58:16;;;;;;;6.60;1.80;;;;;;;32.91;33.56;98610.35;105486;1279;110231;-71
2022/09/15 09:00:51;;;;;;;3.60;1.60;;;;;;;32.88;32.54;98607.19;105281;1281;137911;-72
2022/09/15 09:03:47;;;;;;;3.80;1.80;;;;;;;32.29;32.49;98604.39;105561;1279;97854;-73
2022/09/15 09:06:32;;;;;;;4.20;2.00;;;;;;;32.17;32.60;98608.54;106773;1280;137898;-72
2022/09/15 09:09:19;;;;;;;5.60;1.90;;;;;;;32.13;32.33;98613.35;106934;1281;109043;-72
2022/09/15 09:12:19;;;;;;;5.40;1.70;;;;;;;31.95;32.03;98608.19;106924;1279;138576;-71
2022/09/15 09:15:08;;;;;;;2.90;1.30;;;;;;;31.46;32.35;98612.16;106247;1281;97950;-70
2022/09/15 09:17:54;;;;;;;4.20;1.40;;;;;;;31.46;32.46;98607.70;105591;1279;98509;-71
2022/09/15 09:20:43;;;;;;;5.00;1.80;;;;;;;31.53;32.74;98611.09;105486;1280;112616;-72
2022/09/15 09:23:18;;;;;;;5.50;1.80;;;;;;;31.70;32.30;98605.60;105388;1279;107834;-70
2022/09/15 09:25:51;;;;;;;4.80;1.70;;;;;;;31.73;32.28;98605.23;105397;1279;137820;-70
2022/09/15 09:28:31;;;;;;;4.50;1.50;;;;;;;31.76;32.07;98609.73;105541;1281;97872;-70
2022/09/15 09:31:06;;;;;;;5.00;1.50;;;;;;;31.75;31.62;98614.14;105420;1279;138149;-71
2022/09/15 09:33:45;;;;;;;5.70;1.70;;;;;;;31.69;31.56;98611.83;105508;1281;112536;-71
2022/09/15 09:36:19;;;;;;;4.20;1.50;;;;;;;31.52;31.41;98610.95;105549;1279;138951;-73
2022/09/15 09:38:51;;;;;;;5.30;1.80;;;;;;;31.44;32.25;98612.65;105514;1279;109014;-71
2022/09/15 09:41:34;;;;;;;5.90;1.70;;;;;;;31.54;32.08;98616.06;105500;1279;97854;-70
2022/09/15 09:44:10;;;;;;;2.90;1.50;;;;;;;31.55;31.85;98609.66;105563;1279;137994;-71
2022/09/15 09:46:43;;;;;;;5.90;1.90;;;;;;;31.48;31.39;98600.70;105525;1281;112484;-72
2022/09/15 09:49:21;;;;;;;5.90;1.70;;;;;;;31.27;31.05;98604.52;105319;1281;139667;-71
2022/09/15 09:51:54;;;;;;;6.50;1.80;;;;;;;31.07;30.98;98603.07;107019;1279;108869;-71
2022/09/15 09:54:27;;;;;;;2.40;1.40;;;;;;;30.86;30.97;98604.98;106723;1281;139089;-72
2022/09/15 09:57:22;;;;;;;3.20;1.30;;;;;;;30.52;31.03;98607.33;106939;1280;96211;-71
2022/09/15 09:59:55;;;;;;;4.90;1.60;;;;;;;30.27;31.67;98607.67;105403;1280;138585;-70
2022/09/15 10:02:28;;;;;;;4.30;1.40;;;;;;;30.27;32.17;98604.24;105405;1279;108897;-72
2022/09/15 10:05:20;;;;;;;4.20;1.60;;;;;;;30.30;31.48;98600.59;105474;1279;109971;-72
2022/09/15 10:07:52;;;;;;;6.20;1.80;;;;;;;29.63;31.42;98599.22;105343;1281;137911;-72
2022/09/15 10:10:30;;;;;;;3.50;1.50;;;;;;;29.02;31.93;98599.16;105558;1280;97953;-74
2022/09/15 10:13:04;;;;;;;5.90;1.70;;;;;;;28.63;32.27;98601.88;105384;1281;137584;-74
2022/09/15 10:15:42;;;;;;;6.10;1.60;;;;;;;28.40;32.57;98599.74;105484;1281;108830;-76
2022/09/15 10:18:31;;;;;;;4.10;1.60;;;;;;;27.94;32.19;98601.27;105187;1281;138565;-74
2022/09/15 10:21:05;;;;;;;3.90;1.60;;;;;;;27.40;32.80;98596.20;105187;1281;97750;-73
2022/09/15 10:23:37;;;;;;;2.70;1.50;;;;;;;27.15;32.95;98597.92;105548;1280;97927;-74
2022/09/15 10:26:31;;;;;;;4.60;1.80;;;;;;;26.65;33.66;98602.70;105296;1280;139358;-74
2022/09/15 10:29:15;;;;;;;4.00;1.60;;;;;;;26.26;34.48;98605.95;105525;1281;110570;-75
2022/09/15 10:31:47;;;;;;;4.10;1.90;;;;;;;26.00;35.04;98607.02;105274;1279;139249;-72
2022/09/15 10:34:31;;;;;;;5.40;1.70;;;;;;;25.96;35.41;98604.79;105411;1281;97881;-71
2022/09/15 10:37:14;;;;;;;11.50;2.00;;;;;;;25.75;35.40;98607.33;105354;1279;137660;-74
2022/09/15 10:39:53;;;;;;;4.10;1.60;;;;;;;25.32;35.47;98606.33;106897;1281;112375;-73
2022/09/15 10:42:48;;;;;;;5.40;1.90;;;;;;;24.74;35.78;98612.07;106840;1279;138692;-73
2022/09/15 10:45:30;;;;;;;7.80;2.00;;;;;;;24.26;36.23;98609.30;106968;1279;107424;-71
2022/09/15 10:48:26;;;;;;;7.20;1.60;;;;;;;23.94;36.59;98600.52;106920;1279;138597;-74
2022/09/15 10:51:05;;;;;;;5.40;1.90;;;;;;;23.52;37.00;98600.69;106935;1281;95806;-75
2022/09/15 10:53:53;;;;;;;5.30;2.00;;;;;;;23.16;37.46;98607.67;105829;1281;111551;-73
2022/09/15 10:56:33;;;;;;;5.70;2.20;;;;;;;22.85;38.08;98613.58;105453;1280;107831;-74
2022/09/15 10:59:20;;;;;;;7.10;2.00;;;;;;;22.62;38.99;98622.98;105484;1279;108952;-71
2022/09/15 11:02:12;;;;;;;8.30;2.20;;;;;;;22.42;39.34;98620.48;105323;1281;137871;-73
2022/09/15 11:04:56;;;;;;;4.90;2.30;;;;;;;22.18;39.65;98627.38;105432;1279;97830;-72
2022/09/15 11:07:39;;;;;;;4.80;2.10;;;;;;;21.86;39.54;98625.36;105427;1279;138363;-73
2022/09/15 11:10:19;;;;;;;7.60;1.80;;;;;;;21.59;40.10;98625.48;105539;1279;108933;-73
2022/09/15 11:13:01;;;;;;;9.30;2.30;;;;;;;21.35;40.58;98620.89;106798;1279;138201;-72
2022/09/15 11:15:48;;;;;;;5.40;2.00;;;;;;;21.19;41.28;98627.30;106845;1279;97678;-74
2022/09/15 11:18:55;;;;;;;6.20;1.90;;;;;;;21.06;41.71;98626.02;106056;1279;137761;-73
2022/09/15 11:21:36;;;;;;;7.70;2.10;;;;;;;20.99;42.38;98624.39;105410;1279;111681;-75
2022/09/15 11:24:28;;;;;;;7.80;2.30;;;;;;;20.95;42.43;98625.84;105182;1281;141037;-74
2022/09/15 11:27:06;;;;;;;14.60;2.30;;;;;;;21.02;42.70;98626.75;105529;1281;108861;-76
2022/09/15 11:29:52;;;;;;;6.60;2.10;;;;;;;21.02;42.74;98621.61;106869;1281;97393;-73
2022/09/15 11:32:29;;;;;;;5.90;2.00;;;;;;;20.96;42.63;98622.73;106924;1281;96225;-77
2022/09/15 11:35:08;;;;;;;4.60;1.90;;;;;;;20.90;42.98;98617.89;106893;1281;111470;-75
2022/09/15 11:37:45;;;;;;;6.10;1.80;;;;;;;20.84;43.05;98620.65;106803;1281;138436;-73
2022/09/15 11:40:25;;;;;;;4.30;1.80;;;;;;;20.78;43.19;98621.20;106970;1279;110118;-73
2022/09/15 11:43:00;;;;;;;5.60;2.10;;;;;;;20.74;43.70;98620.53;105613;1281;138877;-74
2022/09/15 11:45:38;;;;;;;6.50;1.80;;;;;;;20.72;43.73;98620.79;105528;1281;97866;-73
2022/09/15 11:48:15;;;;;;;5.30;2.00;;;;;;;20.66;43.79;98616.58;105461;1279;138702;-74
2022/09/15 11:50:52;;;;;;;7.30;2.00;;;;;;;20.64;43.83;98605.71;105513;1281;107891;-71